Aviation Digital Data Service (ADDS)

Output produced by METARs form (1709 UTC 24 April 2017)
found at http://www.aviationweather.gov/adds/metars/
 
OSDI 241700Z 21014KT CAVOK 17/05 Q1016
TAF OSDI 241600Z 2418/2524 21010KT CAVOK 
     TEMPO 2509/2518 24010G20KT 9999 FEW030
       
OSKL 241600Z 25007KT CAVOK 17/07 Q1012
OSLK 241700Z VRB02KT CAVOK 17/08 Q1018
OSLK 241600Z 2418/2518 06005KT CAVOK 
     TEMPO 2506/2518 28010KT
       
OSLK 241700Z VRB02KT CAVOK 17/08 Q1018
OSLK 241600Z 2418/2518 06005KT CAVOK 
     TEMPO 2506/2518 28010KT
       
OSDI 241700Z 21014KT CAVOK 17/05 Q1016
TAF OSDI 241600Z 2418/2524 21010KT CAVOK 
     TEMPO 2509/2518 24010G20KT 9999 FEW030
       
OSKL 241600Z 25007KT CAVOK 17/07 Q1012